createdAt,value
2019-04-30T00:01:26.790Z,67.83
2019-04-30T00:04:00.690Z,67.41
2019-04-30T00:06:34.374Z,67.79
2019-04-30T00:09:02.433Z,67.72
2019-04-30T00:11:32.496Z,67.46
2019-04-30T00:14:02.586Z,67.78
2019-04-30T00:16:36.195Z,68.05
2019-04-30T00:19:06.135Z,67.93
2019-04-30T00:21:36.386Z,67.78
2019-04-30T00:24:10.282Z,67.76
2019-04-30T00:26:39.942Z,67.66
2019-04-30T00:29:10.070Z,67.79
2019-04-30T00:31:40.067Z,67.56
2019-04-30T00:34:10.175Z,67.49
2019-04-30T00:36:40.153Z,67.63
2019-04-30T00:39:13.314Z,67.55
2019-04-30T00:41:45.913Z,67.20
2019-04-30T00:44:15.144Z,67.89
2019-04-30T00:46:45.792Z,67.44
2019-04-30T00:49:22.854Z,67.53
2019-04-30T00:51:49.895Z,67.48
2019-04-30T00:54:22.553Z,67.57
2019-04-30T00:56:52.177Z,67.89
2019-04-30T00:59:22.183Z,67.75
2019-04-30T01:02:06.076Z,67.63
2019-04-30T01:04:47.830Z,67.55
2019-04-30T01:07:17.800Z,67.50
2019-04-30T01:09:49.877Z,67.39
2019-04-30T01:12:27.711Z,67.40
2019-04-30T01:14:51.220Z,67.27
2019-04-30T01:17:21.186Z,67.30
2019-04-30T01:19:54.536Z,67.37
2019-04-30T01:22:28.196Z,67.15
2019-04-30T01:24:54.793Z,67.24
2019-04-30T01:27:24.807Z,67.27
2019-04-30T01:29:54.968Z,67.14
2019-04-30T01:32:24.992Z,67.05
2019-04-30T01:34:55.538Z,66.92
2019-04-30T01:37:29.632Z,66.75
2019-04-30T01:39:58.938Z,66.58
2019-04-30T01:42:29.050Z,66.83
2019-04-30T01:44:59.060Z,66.92
2019-04-30T01:47:31.220Z,66.84
2019-04-30T01:50:04.730Z,66.96
2019-04-30T01:52:50.506Z,66.94
2019-04-30T01:55:22.158Z,67.28
2019-04-30T01:58:14.204Z,67.40
2019-04-30T02:00:51.288Z,67.38
2019-04-30T02:03:21.713Z,67.50
2019-04-30T02:05:51.753Z,67.83
2019-04-30T02:08:21.804Z,67.20
2019-04-30T02:10:51.906Z,66.83
2019-04-30T02:13:21.891Z,67.00
2019-04-30T02:15:51.896Z,66.81
2019-04-30T02:18:21.989Z,66.89
2019-04-30T02:20:51.964Z,66.75
2019-04-30T02:23:21.989Z,67.47
2019-04-30T02:25:52.069Z,67.41
2019-04-30T02:28:22.088Z,67.37
2019-04-30T02:30:52.145Z,67.38
2019-04-30T02:33:22.261Z,67.65
2019-04-30T02:36:20.260Z,67.08
2019-04-30T02:38:52.724Z,67.10
2019-04-30T02:41:23.029Z,67.13
2019-04-30T02:43:54.583Z,67.11
2019-04-30T02:46:29.213Z,67.34
2019-04-30T02:48:59.777Z,67.81
2019-04-30T02:51:31.664Z,67.67
2019-04-30T02:54:31.544Z,67.21
2019-04-30T02:57:14.337Z,67.48
2019-04-30T03:00:02.497Z,67.08
2019-04-30T03:02:33.225Z,67.02
2019-04-30T03:05:03.229Z,67.07
2019-04-30T03:07:33.235Z,67.30
2019-04-30T03:10:03.286Z,67.34
2019-04-30T03:12:33.889Z,67.38
2019-04-30T03:15:04.031Z,67.35
2019-04-30T03:17:50.609Z,67.65
2019-04-30T03:20:36.851Z,68.73
2019-04-30T03:23:09.838Z,68.20
2019-04-30T03:25:40.592Z,67.78
2019-04-30T03:28:10.707Z,67.96
2019-04-30T03:30:41.795Z,67.71
2019-04-30T03:33:13.285Z,67.78
2019-04-30T03:35:47.807Z,67.91
2019-04-30T03:38:15.398Z,67.47
2019-04-30T03:40:45.337Z,67.49
2019-04-30T03:43:15.364Z,67.91
2019-04-30T03:45:45.325Z,67.43
2019-04-30T03:48:15.328Z,67.51
2019-04-30T03:50:53.296Z,67.97
2019-04-30T03:53:17.069Z,67.51
2019-04-30T03:55:47.157Z,67.41
2019-04-30T03:58:20.806Z,67.40
2019-04-30T04:01:14.217Z,67.42
2019-04-30T04:04:02.361Z,67.10
2019-04-30T04:06:39.474Z,67.50
2019-04-30T04:09:21.959Z,67.39
2019-04-30T04:11:51.009Z,67.44
2019-04-30T04:14:21.181Z,67.39
2019-04-30T04:16:51.224Z,67.62
2019-04-30T04:19:21.315Z,68.67
2019-04-30T04:21:51.315Z,69.01
2019-04-30T04:24:21.327Z,68.74
2019-04-30T04:26:51.357Z,69.04
2019-04-30T04:29:21.425Z,68.79
2019-04-30T04:31:51.403Z,69.10
2019-04-30T04:34:21.393Z,68.54
2019-04-30T04:36:51.432Z,68.25
2019-04-30T04:39:21.430Z,68.78
2019-04-30T04:41:51.540Z,68.82
2019-04-30T04:44:21.531Z,69.45
2019-04-30T04:46:51.491Z,69.83
2019-04-30T04:49:21.492Z,69.79
2019-04-30T04:51:51.459Z,69.61
2019-04-30T04:54:21.554Z,69.31
2019-04-30T04:56:54.749Z,69.05
2019-04-30T04:59:23.279Z,69.89
2019-04-30T05:01:53.342Z,70.64
2019-04-30T05:04:23.375Z,73.72
2019-04-30T05:06:53.372Z,79.02
2019-04-30T05:09:23.418Z,76.00
2019-04-30T05:11:53.496Z,80.91
2019-04-30T05:14:23.516Z,80.33
2019-04-30T05:16:53.509Z,82.11
2019-04-30T05:19:23.550Z,78.66
2019-04-30T05:21:53.532Z,83.25
2019-04-30T05:24:23.531Z,83.38
2019-04-30T05:26:53.521Z,82.59
2019-04-30T05:29:23.550Z,84.66
2019-04-30T05:31:53.593Z,84.13
2019-04-30T05:34:23.610Z,83.67
2019-04-30T05:36:53.632Z,84.02
2019-04-30T05:39:23.628Z,84.37
2019-04-30T05:41:53.663Z,84.15
2019-04-30T05:44:23.673Z,84.99
2019-04-30T05:46:53.668Z,84.32
2019-04-30T05:49:23.751Z,82.33
2019-04-30T05:51:55.875Z,82.41
2019-04-30T05:54:25.453Z,83.50
2019-04-30T05:56:55.446Z,82.18
2019-04-30T05:59:25.488Z,83.20
2019-04-30T06:01:55.618Z,82.16
2019-04-30T06:04:25.575Z,82.12
2019-04-30T06:06:55.609Z,83.78
2019-04-30T06:09:34.262Z,83.71
2019-04-30T06:12:22.175Z,83.76
2019-04-30T06:14:56.206Z,82.86
2019-04-30T06:17:29.396Z,83.66
2019-04-30T06:19:59.462Z,85.00
2019-04-30T06:22:29.519Z,82.86
2019-04-30T06:24:59.600Z,84.54
2019-04-30T06:27:29.918Z,84.13
2019-04-30T06:29:59.898Z,83.71
2019-04-30T06:32:30.070Z,84.55
2019-04-30T06:35:00.064Z,84.51
2019-04-30T06:37:31.561Z,85.08
2019-04-30T06:40:01.742Z,84.40
2019-04-30T06:42:31.833Z,84.41
2019-04-30T06:45:01.832Z,85.06
2019-04-30T06:47:33.450Z,84.57
2019-04-30T06:50:03.548Z,84.81
2019-04-30T06:52:33.583Z,86.17
2019-04-30T06:55:03.613Z,86.41
2019-04-30T06:57:33.643Z,84.88
2019-04-30T07:00:03.647Z,84.51
2019-04-30T07:02:33.735Z,83.28
2019-04-30T07:05:03.779Z,84.92
2019-04-30T07:07:39.004Z,85.08
2019-04-30T07:10:17.000Z,84.60
2019-04-30T07:12:50.609Z,84.32
2019-04-30T07:15:20.626Z,83.39
2019-04-30T07:17:50.645Z,83.47
2019-04-30T07:20:20.660Z,83.81
2019-04-30T07:22:59.113Z,83.62
2019-04-30T07:25:22.436Z,83.09
2019-04-30T07:27:52.498Z,83.95
2019-04-30T07:30:22.584Z,83.77
2019-04-30T07:32:52.718Z,82.86
2019-04-30T07:35:22.740Z,82.64
2019-04-30T07:37:54.636Z,82.84
2019-04-30T07:40:24.489Z,81.92
2019-04-30T07:42:54.618Z,80.82
2019-04-30T07:45:25.765Z,80.38
2019-04-30T07:47:55.853Z,80.04
2019-04-30T07:50:26.453Z,79.57
2019-04-30T07:53:04.736Z,78.46
2019-04-30T07:55:29.544Z,77.26
2019-04-30T07:57:59.699Z,77.15
2019-04-30T08:00:31.315Z,76.35
2019-04-30T08:03:10.693Z,76.37
2019-04-30T08:05:42.693Z,75.67
2019-04-30T08:08:21.211Z,75.04
2019-04-30T08:10:44.540Z,74.11
2019-04-30T08:13:15.757Z,73.42
2019-04-30T08:15:46.508Z,73.62
2019-04-30T08:18:18.397Z,72.90
2019-04-30T08:20:49.016Z,71.58
2019-04-30T08:23:33.061Z,71.01
2019-04-30T08:25:50.827Z,71.03
2019-04-30T08:28:20.873Z,71.43
2019-04-30T08:30:50.877Z,70.12
2019-04-30T08:33:21.020Z,69.32
2019-04-30T08:35:51.097Z,68.53
2019-04-30T08:38:21.143Z,67.15
2019-04-30T08:40:55.986Z,67.77
2019-04-30T08:43:22.929Z,66.35
2019-04-30T08:45:53.010Z,66.43
2019-04-30T08:48:23.081Z,65.91
2019-04-30T08:53:29.507Z,65.99
2019-04-30T08:55:53.851Z,65.13
2019-04-30T08:58:23.993Z,65.58
2019-04-30T09:00:54.135Z,65.00
2019-04-30T09:03:24.243Z,65.40
2019-04-30T09:06:01.255Z,64.93
2019-04-30T09:08:31.349Z,64.02
2019-04-30T09:11:01.385Z,63.56
2019-04-30T09:13:31.419Z,63.78
2019-04-30T09:16:01.454Z,63.86
2019-04-30T09:18:31.508Z,64.33
2019-04-30T09:21:06.074Z,65.38
2019-04-30T09:23:43.965Z,63.33
2019-04-30T09:26:05.125Z,61.77
2019-04-30T09:28:35.131Z,62.85
2019-04-30T09:31:05.211Z,62.83
2019-04-30T09:33:35.210Z,62.12
2019-04-30T09:36:05.348Z,62.11
2019-04-30T09:38:35.391Z,61.11
2019-04-30T09:41:05.505Z,61.30
2019-04-30T09:43:35.545Z,61.84
2019-04-30T09:46:15.391Z,60.47
2019-04-30T09:48:38.645Z,60.11
2019-04-30T09:51:10.761Z,60.63
2019-04-30T09:53:40.946Z,62.47
2019-04-30T09:56:11.126Z,62.89
2019-04-30T09:58:41.223Z,61.96
2019-04-30T10:01:11.267Z,62.06
2019-04-30T10:03:42.016Z,62.26
2019-04-30T10:06:12.565Z,62.47
2019-04-30T10:08:48.443Z,61.28
2019-04-30T10:11:50.115Z,61.12
2019-04-30T10:17:42.025Z,60.45
2019-04-30T10:20:13.354Z,61.52
2019-04-30T10:22:43.384Z,60.50
2019-04-30T10:25:13.623Z,60.47
2019-04-30T10:27:43.674Z,60.74
2019-04-30T10:30:14.693Z,60.57
2019-04-30T10:32:44.737Z,60.32
2019-04-30T10:35:14.795Z,59.42
2019-04-30T10:37:44.828Z,60.30
2019-04-30T10:40:15.161Z,59.80
2019-04-30T10:42:45.193Z,60.56
2019-04-30T10:45:15.468Z,60.40
2019-04-30T10:47:45.468Z,60.68
2019-04-30T10:50:15.692Z,60.21
2019-04-30T10:52:45.764Z,60.56
2019-04-30T10:55:15.788Z,58.57
2019-04-30T10:57:45.844Z,58.29
2019-04-30T11:00:16.275Z,59.89
2019-04-30T11:02:46.314Z,59.08
2019-04-30T11:05:16.510Z,58.23
2019-04-30T11:07:46.646Z,59.14
2019-04-30T11:10:18.773Z,59.28
2019-04-30T11:12:48.652Z,60.23
2019-04-30T11:15:20.634Z,58.07
2019-04-30T11:17:50.810Z,59.22
2019-04-30T11:20:22.196Z,59.80
2019-04-30T11:22:54.761Z,59.50
2019-04-30T11:25:25.051Z,58.84
2019-04-30T11:27:56.399Z,58.27
2019-04-30T11:30:27.715Z,57.80
2019-04-30T11:32:58.792Z,57.33
2019-04-30T11:35:29.704Z,58.11
2019-04-30T11:37:59.836Z,58.49
2019-04-30T11:40:36.874Z,58.20
2019-04-30T11:43:03.622Z,58.41
2019-04-30T11:46:18.709Z,57.43
2019-04-30T11:48:49.088Z,57.59
2019-04-30T11:51:19.437Z,58.16
2019-04-30T11:53:49.802Z,58.50
2019-04-30T11:56:19.810Z,58.24
2019-04-30T11:58:49.850Z,56.90
2019-04-30T12:01:22.382Z,56.86
2019-04-30T12:03:52.468Z,57.44
2019-04-30T12:06:22.507Z,58.21
2019-04-30T12:09:09.205Z,58.21
2019-04-30T12:11:39.230Z,58.47
2019-04-30T12:14:09.249Z,58.16
2019-04-30T12:16:39.623Z,57.10
2019-04-30T12:19:09.932Z,57.78
2019-04-30T12:21:39.954Z,57.47
2019-04-30T12:24:09.998Z,58.63
2019-04-30T12:26:40.026Z,57.88
2019-04-30T12:29:11.241Z,58.18
2019-04-30T12:31:41.416Z,59.09
2019-04-30T12:34:11.466Z,58.36
2019-04-30T12:36:41.500Z,57.50
2019-04-30T12:39:11.622Z,56.48
2019-04-30T12:41:41.648Z,56.66
2019-04-30T12:44:11.788Z,56.62
2019-04-30T12:46:41.980Z,56.16
2019-04-30T12:49:13.106Z,56.95
2019-04-30T12:51:59.866Z,56.61
2019-04-30T12:54:50.866Z,57.13
2019-04-30T12:57:56.142Z,57.28
2019-04-30T13:00:19.514Z,58.47
2019-04-30T13:02:49.668Z,57.65
2019-04-30T13:05:20.679Z,57.37
2019-04-30T13:07:51.389Z,56.96
2019-04-30T13:10:22.670Z,58.00
2019-04-30T13:12:53.595Z,57.36
2019-04-30T13:15:24.027Z,57.31
2019-04-30T13:17:54.161Z,57.23
2019-04-30T13:20:24.517Z,57.10
2019-04-30T13:22:54.836Z,57.20
2019-04-30T13:25:32.488Z,57.42
2019-04-30T13:28:01.410Z,57.93
2019-04-30T13:30:32.262Z,58.13
2019-04-30T13:33:20.259Z,58.11
2019-04-30T13:35:48.970Z,58.36
2019-04-30T13:38:30.348Z,58.80
2019-04-30T13:41:06.194Z,58.19
2019-04-30T13:43:54.011Z,58.03
2019-04-30T13:46:24.525Z,58.25
2019-04-30T13:48:54.566Z,58.00
2019-04-30T13:51:24.687Z,59.11
2019-04-30T13:53:54.720Z,59.13
2019-04-30T13:56:24.811Z,59.16
2019-04-30T13:58:54.834Z,58.67
2019-04-30T14:01:24.913Z,58.14
2019-04-30T14:04:17.318Z,58.97
2019-04-30T14:07:15.751Z,58.45
2019-04-30T14:09:45.956Z,58.81
2019-04-30T14:12:15.986Z,58.29
2019-04-30T14:14:46.075Z,58.69
2019-04-30T14:17:17.295Z,59.08
2019-04-30T14:19:48.453Z,59.50
2019-04-30T14:22:18.593Z,59.37
2019-04-30T14:24:48.689Z,59.57
2019-04-30T14:27:18.726Z,59.38
2019-04-30T14:29:51.114Z,59.10
2019-04-30T14:32:21.175Z,58.82
2019-04-30T14:34:51.273Z,59.32
2019-04-30T14:37:21.467Z,59.78
2019-04-30T14:39:52.170Z,60.19
2019-04-30T14:42:23.605Z,60.71
2019-04-30T14:45:03.843Z,61.33
2019-04-30T14:47:42.827Z,60.98
2019-04-30T14:50:15.324Z,60.92
2019-04-30T14:53:07.427Z,61.01
2019-04-30T14:56:09.477Z,60.70
2019-04-30T14:58:55.637Z,60.21
2019-04-30T15:01:45.659Z,61.27
2019-04-30T15:04:15.714Z,62.29
2019-04-30T15:06:45.793Z,62.17
2019-04-30T15:09:15.999Z,61.91
2019-04-30T15:11:46.085Z,62.59
2019-04-30T15:14:16.149Z,62.93
2019-04-30T15:16:46.220Z,63.08
2019-04-30T15:19:16.361Z,62.82
2019-04-30T15:21:46.497Z,62.90
2019-04-30T15:24:30.163Z,63.30
2019-04-30T15:27:00.209Z,63.29
2019-04-30T15:29:30.397Z,63.02
2019-04-30T15:32:00.502Z,63.12
2019-04-30T15:34:30.537Z,62.32
2019-04-30T15:37:00.606Z,63.24
2019-04-30T15:39:49.031Z,63.27
2019-04-30T15:42:20.372Z,63.31
2019-04-30T15:44:50.522Z,63.54
2019-04-30T15:47:21.759Z,63.55
2019-04-30T15:49:51.968Z,63.28
2019-04-30T15:52:22.075Z,64.05
2019-04-30T15:54:52.077Z,64.55
2019-04-30T15:57:22.134Z,64.34
2019-04-30T15:59:52.161Z,64.70
2019-04-30T16:02:35.197Z,65.10
2019-04-30T16:05:25.343Z,64.90
2019-04-30T16:08:20.408Z,65.21
2019-04-30T16:11:03.786Z,65.05
2019-04-30T16:13:42.538Z,65.77
2019-04-30T16:16:13.280Z,65.99
2019-04-30T16:18:49.354Z,66.59
2019-04-30T16:21:19.596Z,66.19
2019-04-30T16:23:49.668Z,65.78
2019-04-30T16:26:19.745Z,66.12
2019-04-30T16:28:49.797Z,66.43
2019-04-30T16:31:20.537Z,66.72
2019-04-30T16:33:50.883Z,65.90
2019-04-30T16:36:20.920Z,66.80
2019-04-30T16:38:50.988Z,66.38
2019-04-30T16:41:31.191Z,66.92
2019-04-30T16:43:52.889Z,66.58
2019-04-30T16:46:22.932Z,67.17
2019-04-30T16:48:53.046Z,67.43
2019-04-30T16:51:23.096Z,67.00
2019-04-30T16:53:53.215Z,67.32
2019-04-30T16:56:23.322Z,67.60
2019-04-30T16:58:59.437Z,67.48
2019-04-30T17:01:30.957Z,67.18
2019-04-30T17:04:22.326Z,67.07
2019-04-30T17:06:58.828Z,66.95
2019-04-30T17:09:43.619Z,66.79
2019-04-30T17:12:38.770Z,67.35
2019-04-30T17:15:24.294Z,67.34
2019-04-30T17:17:54.432Z,67.56
2019-04-30T17:20:24.611Z,67.49
2019-04-30T17:22:54.633Z,67.73
2019-04-30T17:25:24.685Z,67.44
2019-04-30T17:27:54.713Z,67.91
2019-04-30T17:30:24.853Z,67.72
2019-04-30T17:32:54.986Z,68.57
2019-04-30T17:35:25.035Z,68.29
2019-04-30T17:37:55.080Z,68.25
2019-04-30T17:40:25.257Z,68.80
2019-04-30T17:42:55.268Z,67.87
2019-04-30T17:45:25.351Z,68.18
2019-04-30T17:47:55.406Z,69.24
2019-04-30T17:50:25.481Z,69.78
2019-04-30T17:52:55.553Z,69.90
2019-04-30T17:55:25.652Z,70.66
2019-04-30T17:57:55.723Z,70.93
2019-04-30T18:00:29.278Z,70.36
2019-04-30T18:02:59.432Z,71.75
2019-04-30T18:05:29.786Z,71.64
2019-04-30T18:07:59.895Z,71.51
2019-04-30T18:10:30.563Z,71.39
2019-04-30T18:13:00.622Z,72.16
2019-04-30T18:15:31.165Z,72.38
2019-04-30T18:18:13.413Z,71.42
2019-04-30T18:20:49.156Z,71.71
2019-04-30T18:23:29.132Z,72.58
2019-04-30T18:26:04.559Z,72.40
2019-04-30T18:28:34.618Z,72.43
2019-04-30T18:31:04.771Z,72.96
2019-04-30T18:33:34.836Z,73.23
2019-04-30T18:36:04.913Z,73.44
2019-04-30T18:38:34.933Z,72.28
2019-04-30T18:41:04.991Z,73.25
2019-04-30T18:43:37.822Z,72.83
2019-04-30T18:46:06.863Z,71.58
2019-04-30T18:48:36.872Z,72.21
2019-04-30T18:51:19.189Z,72.74
2019-04-30T18:53:39.712Z,72.20
2019-04-30T18:56:14.534Z,70.79
2019-04-30T18:58:43.136Z,71.88
2019-04-30T19:01:13.618Z,71.52
2019-04-30T19:03:43.670Z,71.66
2019-04-30T19:06:23.805Z,72.34
2019-04-30T19:09:09.640Z,71.47
2019-04-30T19:11:45.903Z,71.19
2019-04-30T19:14:40.596Z,72.00
2019-04-30T19:17:24.022Z,70.97
2019-04-30T19:20:06.463Z,71.99
2019-04-30T19:22:36.536Z,72.49
2019-04-30T19:25:06.651Z,72.48
2019-04-30T19:27:36.722Z,72.60
2019-04-30T19:30:09.311Z,73.19
2019-04-30T19:32:39.483Z,73.68
2019-04-30T19:35:09.640Z,73.18
2019-04-30T19:37:40.346Z,74.66
2019-04-30T19:40:10.594Z,73.17
2019-04-30T19:42:40.671Z,73.32
2019-04-30T19:45:12.474Z,73.05
2019-04-30T19:47:42.501Z,75.13
2019-04-30T19:50:14.107Z,74.84
2019-04-30T19:52:44.537Z,74.72
2019-04-30T19:55:14.572Z,74.91
2019-04-30T19:57:44.678Z,75.96
2019-04-30T20:00:14.832Z,76.67
2019-04-30T20:02:44.863Z,74.90
2019-04-30T20:05:14.969Z,73.75
2019-04-30T20:07:45.094Z,74.46
2019-04-30T20:10:15.248Z,76.11
2019-04-30T20:12:45.300Z,76.74
2019-04-30T20:15:19.051Z,76.37
2019-04-30T20:17:47.108Z,77.37
2019-04-30T20:20:18.895Z,76.04
2019-04-30T20:22:51.776Z,76.93
2019-04-30T20:25:20.767Z,77.55
2019-04-30T20:27:50.858Z,76.61
2019-04-30T20:30:20.936Z,77.32
2019-04-30T20:32:51.405Z,76.21
2019-04-30T20:35:21.522Z,76.29
2019-04-30T20:38:09.564Z,75.37
2019-04-30T20:40:43.637Z,75.89
2019-04-30T20:43:13.305Z,76.42
2019-04-30T20:45:43.340Z,76.03
2019-04-30T20:48:13.378Z,75.15
2019-04-30T20:50:43.393Z,76.83
2019-04-30T20:53:13.582Z,75.71
2019-04-30T20:55:43.620Z,75.62
2019-04-30T20:58:13.643Z,76.49
2019-04-30T21:00:43.659Z,77.81
2019-04-30T21:03:13.735Z,77.09
2019-04-30T21:05:43.744Z,76.49
2019-04-30T21:08:13.824Z,75.76
2019-04-30T21:10:43.858Z,76.17
2019-04-30T21:13:14.004Z,77.60
2019-04-30T21:15:44.035Z,75.82
2019-04-30T21:18:14.132Z,76.69
2019-04-30T21:20:44.149Z,77.96
2019-04-30T21:23:14.319Z,76.29
2019-04-30T21:25:44.317Z,77.72
2019-04-30T21:28:14.391Z,78.33
2019-04-30T21:30:44.482Z,78.88
2019-04-30T21:33:42.611Z,78.92
2019-04-30T21:36:18.420Z,77.45
2019-04-30T21:38:49.048Z,77.87
2019-04-30T21:41:19.633Z,75.12
2019-04-30T21:43:49.847Z,77.04
2019-04-30T21:46:19.926Z,77.70
2019-04-30T21:48:49.995Z,77.25
2019-04-30T21:51:20.075Z,77.63
2019-04-30T21:53:50.474Z,77.61
2019-04-30T21:56:20.597Z,78.17
2019-04-30T21:58:50.673Z,77.97
2019-04-30T22:01:27.301Z,77.57
2019-04-30T22:03:57.433Z,76.59
2019-04-30T22:06:29.441Z,77.10
2019-04-30T22:08:59.292Z,76.31
2019-04-30T22:11:29.724Z,78.55
2019-04-30T22:13:59.965Z,78.87
2019-04-30T22:16:29.995Z,77.78
2019-04-30T22:19:00.115Z,80.34
2019-04-30T22:21:30.532Z,82.04
2019-04-30T22:24:00.652Z,79.32
2019-04-30T22:26:30.696Z,78.66
2019-04-30T22:29:00.764Z,80.50
2019-04-30T22:31:30.831Z,81.53
2019-04-30T22:34:00.907Z,83.65
2019-04-30T22:36:41.764Z,82.27
2019-04-30T22:39:46.004Z,82.04
2019-04-30T22:42:36.584Z,80.90
2019-04-30T22:45:19.142Z,83.56
2019-04-30T22:47:50.365Z,83.51
2019-04-30T22:50:20.628Z,81.56
2019-04-30T22:52:50.683Z,81.99
2019-04-30T22:55:20.754Z,84.32
2019-04-30T22:57:50.770Z,82.69
2019-04-30T23:00:26.302Z,84.83
2019-04-30T23:02:58.876Z,83.89
2019-04-30T23:05:28.940Z,82.43
2019-04-30T23:07:59.024Z,84.22
2019-04-30T23:10:29.104Z,83.53
2019-04-30T23:12:59.122Z,83.99
2019-04-30T23:15:29.266Z,85.32
2019-04-30T23:17:59.302Z,86.68
2019-04-30T23:20:29.755Z,84.02
2019-04-30T23:22:59.762Z,85.83
2019-04-30T23:25:29.868Z,83.38
2019-04-30T23:27:59.874Z,83.90
2019-04-30T23:30:30.328Z,83.94
2019-04-30T23:33:00.560Z,82.39
2019-04-30T23:35:30.585Z,84.07
2019-04-30T23:38:00.631Z,83.40
2019-04-30T23:40:37.178Z,83.43
2019-04-30T23:43:07.262Z,84.97
2019-04-30T23:45:37.296Z,83.33
2019-04-30T23:48:07.338Z,85.56
2019-04-30T23:50:37.426Z,83.44
2019-04-30T23:53:07.510Z,84.21
2019-04-30T23:55:37.522Z,83.26
2019-04-30T23:58:07.589Z,83.16
